Time;durP1;ratioP1;P1;durP2;ratioP2;P2;SDS_P1;SDS_P2;PMS_P1;PMS_P2;Temp;Humidity;BMP_temperature;BMP_pressure;BME280_temperature;BME280_humidity;BME280_pressure;Samples;Min_cycle;Max_cycle;Signal;HPM_P1;HPM_P2
2023/06/01 00:02:02;;;;;;;5.20;2.80;;;;;;;;;;107402;287;42702;-39
2023/06/01 00:04:44;;;;;;;5.00;2.60;;;;;;;;;;107394;287;43386;-39
2023/06/01 00:07:23;;;;;;;6.10;2.90;;;;;;;;;;107257;287;46591;-39
2023/06/01 00:09:59;;;;;;;5.30;2.90;;;;;;;;;;107420;287;39839;-39
2023/06/01 00:12:33;;;;;;;5.40;2.90;;;;;;;;;;107263;287;43214;-39
2023/06/01 00:15:09;;;;;;;4.70;2.60;;;;;;;;;;107391;285;43294;-39
2023/06/01 00:17:43;;;;;;;5.30;3.00;;;;;;;;;;107385;287;46079;-39
2023/06/01 00:20:17;;;;;;;4.80;2.50;;;;;;;;;;107369;287;40879;-39
2023/06/01 00:22:50;;;;;;;4.70;2.60;;;;;;;;;;107346;285;44093;-39
2023/06/01 00:25:25;;;;;;;4.80;2.40;;;;;;;;;;106541;287;913493;-39
2023/06/01 00:28:02;;;;;;;4.80;2.80;;;;;;;;;;107391;287;44759;-39
2023/06/01 00:30:36;;;;;;;4.50;2.70;;;;;;;;;;107350;287;40844;-39
2023/06/01 00:33:12;;;;;;;4.90;2.60;;;;;;;;;;107356;287;44315;-39
2023/06/01 00:35:47;;;;;;;5.00;2.40;;;;;;;;;;107241;286;175394;-39
2023/06/01 00:38:24;;;;;;;4.80;2.40;;;;;;;;;;107405;287;39916;-39
2023/06/01 00:40:59;;;;;;;5.40;2.60;;;;;;;;;;107366;285;39626;-39
2023/06/01 00:43:34;;;;;;;4.60;2.60;;;;;;;;;;107243;287;175422;-39
2023/06/01 00:46:11;;;;;;;4.40;2.50;;;;;;;;;;107348;287;43308;-38
2023/06/01 00:48:46;;;;;;;4.30;2.30;;;;;;;;;;107389;285;38818;-39
2023/06/01 00:51:24;;;;;;;5.00;2.70;;;;;;;;;;107356;287;40083;-39
2023/06/01 00:53:59;;;;;;;4.60;2.50;;;;;;;;;;107389;287;43250;-39
2023/06/01 00:56:36;;;;;;;4.70;2.30;;;;;;;;;;107322;287;42272;-39
2023/06/01 00:59:11;;;;;;;5.60;2.50;;;;;;;;;;107361;285;39452;-39
2023/06/01 01:01:45;;;;;;;4.00;2.00;;;;;;;;;;107376;287;39718;-39
2023/06/01 01:04:25;;;;;;;4.70;2.30;;;;;;;;;;107392;285;43007;-39
2023/06/01 01:07:20;;;;;;;4.40;2.40;;;;;;;;;;107347;287;42134;-39
2023/06/01 01:10:02;;;;;;;4.50;2.40;;;;;;;;;;107396;287;38785;-39
2023/06/01 01:12:48;;;;;;;4.10;2.20;;;;;;;;;;107257;287;192819;-39
2023/06/01 01:15:34;;;;;;;4.30;2.20;;;;;;;;;;107353;285;43168;-40
2023/06/01 01:18:17;;;;;;;4.30;2.20;;;;;;;;;;106875;288;421672;-39
2023/06/01 01:21:00;;;;;;;4.80;2.20;;;;;;;;;;107435;285;39966;-40
2023/06/01 01:24:16;;;;;;;4.30;2.20;;;;;;;;;;107436;285;39688;-39
2023/06/01 01:27:03;;;;;;;;;;;;;;;;;;107448;287;42924;-39
2023/06/01 01:29:41;;;;;;;4.10;2.30;;;;;;;;;;107455;285;41561;-39
2023/06/01 01:32:16;;;;;;;4.20;2.00;;;;;;;;;;107439;288;38834;-39
2023/06/01 01:34:53;;;;;;;4.40;2.20;;;;;;;;;;107437;287;39717;-39
2023/06/01 01:37:27;;;;;;;4.20;2.20;;;;;;;;;;107391;285;44091;-39
2023/06/01 01:40:01;;;;;;;4.60;2.40;;;;;;;;;;107424;287;42208;-39
2023/06/01 01:42:37;;;;;;;4.40;2.40;;;;;;;;;;107440;287;38773;-39
2023/06/01 01:45:13;;;;;;;3.80;2.00;;;;;;;;;;107370;287;39745;-39
2023/06/01 01:47:59;;;;;;;4.40;2.20;;;;;;;;;;107370;285;42881;-39
2023/06/01 01:50:42;;;;;;;4.60;2.20;;;;;;;;;;107395;287;42158;-39
2023/06/01 01:53:21;;;;;;;4.30;2.00;;;;;;;;;;107369;289;38914;-39
2023/06/01 01:55:55;;;;;;;4.30;2.10;;;;;;;;;;107416;285;39425;-39
2023/06/01 01:58:31;;;;;;;4.20;2.10;;;;;;;;;;107342;287;43089;-39
2023/06/01 02:01:05;;;;;;;4.10;2.10;;;;;;;;;;107358;285;42155;-39
2023/06/01 02:03:39;;;;;;;4.40;2.00;;;;;;;;;;107397;289;38919;-39
2023/06/01 02:06:14;;;;;;;3.60;2.00;;;;;;;;;;107376;287;39756;-40
2023/06/01 02:08:48;;;;;;;4.70;2.10;;;;;;;;;;107329;285;42924;-39
2023/06/01 02:11:24;;;;;;;3.90;1.90;;;;;;;;;;107369;287;43262;-40
2023/06/01 02:14:01;;;;;;;4.00;1.90;;;;;;;;;;107348;287;39956;-39
2023/06/01 02:16:36;;;;;;;3.70;2.00;;;;;;;;;;107395;285;40719;-39
2023/06/01 02:19:11;;;;;;;3.90;2.10;;;;;;;;;;107372;285;43007;-39
2023/06/01 02:21:46;;;;;;;4.30;2.00;;;;;;;;;;107363;285;42352;-39
2023/06/01 02:24:21;;;;;;;4.20;1.90;;;;;;;;;;107383;288;40040;-39
2023/06/01 02:26:58;;;;;;;4.30;2.00;;;;;;;;;;107397;287;39684;-39
2023/06/01 02:29:36;;;;;;;4.40;2.10;;;;;;;;;;107390;285;44115;-39
2023/06/01 02:32:12;;;;;;;4.40;1.80;;;;;;;;;;107420;287;43304;-39
2023/06/01 02:34:47;;;;;;;3.90;2.00;;;;;;;;;;107395;285;39247;-39
2023/06/01 02:37:24;;;;;;;4.80;2.00;;;;;;;;;;107390;285;40765;-39
2023/06/01 02:39:59;;;;;;;4.70;2.10;;;;;;;;;;107379;287;44123;-39
2023/06/01 02:42:34;;;;;;;4.50;2.00;;;;;;;;;;107402;287;42147;-39
2023/06/01 02:45:11;;;;;;;4.40;1.90;;;;;;;;;;107410;285;38768;-40
2023/06/01 02:47:45;;;;;;;4.80;2.30;;;;;;;;;;107377;285;40769;-39
2023/06/01 02:50:18;;;;;;;3.90;1.90;;;;;;;;;;107337;287;42952;-39
2023/06/01 02:52:52;;;;;;;4.00;2.10;;;;;;;;;;107377;285;42267;-39
2023/06/01 02:55:27;;;;;;;4.10;1.90;;;;;;;;;;107408;285;38843;-39
2023/06/01 02:58:00;;;;;;;4.00;1.80;;;;;;;;;;107351;285;39696;-39
2023/06/01 03:00:36;;;;;;;4.30;2.00;;;;;;;;;;107209;287;196148;-39
2023/06/01 03:03:11;;;;;;;4.30;2.00;;;;;;;;;;107357;287;42459;-39
2023/06/01 03:05:47;;;;;;;4.60;2.10;;;;;;;;;;107359;285;38958;-39
2023/06/01 03:08:24;;;;;;;4.20;2.00;;;;;;;;;;107370;287;40216;-39
2023/06/01 03:11:02;;;;;;;4.00;2.00;;;;;;;;;;107348;287;42928;-39
2023/06/01 03:13:39;;;;;;;4.40;1.90;;;;;;;;;;107363;285;42320;-39
2023/06/01 03:16:17;;;;;;;4.20;2.00;;;;;;;;;;107364;285;39068;-39
2023/06/01 03:18:55;;;;;;;3.70;1.90;;;;;;;;;;107318;287;39719;-39
2023/06/01 03:21:32;;;;;;;5.00;2.20;;;;;;;;;;107381;287;49515;-39
2023/06/01 03:24:08;;;;;;;3.80;2.00;;;;;;;;;;107380;287;42137;-39
2023/06/01 03:26:44;;;;;;;4.00;2.00;;;;;;;;;;107391;287;38908;-39
2023/06/01 03:29:20;;;;;;;4.30;2.10;;;;;;;;;;107331;285;39647;-39
2023/06/01 03:31:59;;;;;;;4.10;2.10;;;;;;;;;;107385;287;42932;-39
2023/06/01 03:34:36;;;;;;;4.10;2.00;;;;;;;;;;107300;289;43376;-39
2023/06/01 03:37:11;;;;;;;3.70;1.90;;;;;;;;;;107370;288;39077;-39
2023/06/01 03:39:47;;;;;;;4.20;1.80;;;;;;;;;;107324;288;39675;-39
2023/06/01 03:42:21;;;;;;;4.40;2.10;;;;;;;;;;107370;286;43016;-39
2023/06/01 03:44:58;;;;;;;4.20;2.20;;;;;;;;;;107355;285;42218;-39
2023/06/01 03:47:32;;;;;;;4.40;1.90;;;;;;;;;;107369;288;38957;-39
2023/06/01 03:50:09;;;;;;;4.50;2.00;;;;;;;;;;107321;288;39830;-39
2023/06/01 03:52:47;;;;;;;3.80;1.90;;;;;;;;;;107346;288;42902;-39
2023/06/01 03:55:27;;;;;;;4.20;2.20;;;;;;;;;;107328;286;42211;-39
2023/06/01 03:58:04;;;;;;;4.20;1.90;;;;;;;;;;107364;288;39071;-39
2023/06/01 04:00:41;;;;;;;4.00;1.90;;;;;;;;;;107318;286;40910;-39
2023/06/01 04:03:16;;;;;;;4.10;1.90;;;;;;;;;;107351;288;42945;-39
2023/06/01 04:05:51;;;;;;;4.10;2.00;;;;;;;;;;107366;288;42264;-39
2023/06/01 04:08:25;;;;;;;4.70;2.00;;;;;;;;;;107371;285;38818;-39
2023/06/01 04:11:03;;;;;;;4.60;2.20;;;;;;;;;;107182;288;175513;-39
2023/06/01 04:13:40;;;;;;;4.30;1.90;;;;;;;;;;107264;286;175547;-39
2023/06/01 04:16:16;;;;;;;4.60;2.00;;;;;;;;;;107261;288;42447;-39
2023/06/01 04:18:54;;;;;;;4.00;2.10;;;;;;;;;;107400;288;38526;-39
2023/06/01 04:21:32;;;;;;;4.70;2.20;;;;;;;;;;107328;286;39859;-39
2023/06/01 04:24:07;;;;;;;4.70;2.30;;;;;;;;;;107361;288;42915;-39
2023/06/01 04:26:41;;;;;;;4.60;2.20;;;;;;;;;;107358;288;42360;-39
2023/06/01 04:29:19;;;;;;;4.70;2.20;;;;;;;;;;107376;286;38813;-39
2023/06/01 04:31:54;;;;;;;5.00;2.20;;;;;;;;;;107293;288;39893;-41
2023/06/01 04:34:29;;;;;;;4.90;2.20;;;;;;;;;;107364;286;42931;-39
2023/06/01 04:37:06;;;;;;;4.80;2.20;;;;;;;;;;107365;288;42397;-39
2023/06/01 04:39:40;;;;;;;4.80;2.30;;;;;;;;;;107406;285;39930;-40
2023/06/01 04:42:16;;;;;;;4.60;2.40;;;;;;;;;;107347;287;39697;-39
2023/06/01 04:44:51;;;;;;;4.90;2.60;;;;;;;;;;107376;287;44091;-39
2023/06/01 04:47:27;;;;;;;5.40;2.80;;;;;;;;;;107387;287;42161;-39
2023/06/01 04:50:03;;;;;;;4.50;2.30;;;;;;;;;;107385;280;38934;-39
2023/06/01 04:52:37;;;;;;;5.10;2.30;;;;;;;;;;107361;285;39643;-39
2023/06/01 04:55:16;;;;;;;5.00;2.30;;;;;;;;;;107385;287;42906;-40
2023/06/01 04:57:50;;;;;;;4.70;2.30;;;;;;;;;;107389;287;42176;-40
2023/06/01 05:00:26;;;;;;;5.00;2.50;;;;;;;;;;107397;287;38925;-39
2023/06/01 05:03:02;;;;;;;4.80;2.50;;;;;;;;;;107355;285;39798;-39
2023/06/01 05:05:42;;;;;;;5.50;2.40;;;;;;;;;;107406;287;42658;-39
2023/06/01 05:08:22;;;;;;;5.30;2.40;;;;;;;;;;107372;287;41949;-39
2023/06/01 05:10:57;;;;;;;4.80;2.40;;;;;;;;;;107355;287;38920;-39
2023/06/01 05:13:32;;;;;;;5.60;2.50;;;;;;;;;;107484;287;45349;-39
2023/06/01 05:16:08;;;;;;;4.90;2.20;;;;;;;;;;107363;287;43079;-39
2023/06/01 05:18:45;;;;;;;5.10;2.60;;;;;;;;;;107263;289;44383;-39
2023/06/01 05:21:20;;;;;;;5.30;2.60;;;;;;;;;;107398;285;39901;-39
2023/06/01 05:23:55;;;;;;;4.70;2.40;;;;;;;;;;107349;287;39678;-40
2023/06/01 05:26:30;;;;;;;5.30;2.40;;;;;;;;;;107406;287;42923;-41
2023/06/01 05:29:06;;;;;;;5.60;2.50;;;;;;;;;;107378;285;42173;-40
2023/06/01 05:31:41;;;;;;;5.60;2.60;;;;;;;;;;107326;287;38860;-39
2023/06/01 05:34:17;;;;;;;5.30;2.60;;;;;;;;;;107358;287;46147;-39
2023/06/01 05:36:51;;;;;;;5.20;2.60;;;;;;;;;;107394;287;43055;-39
2023/06/01 05:39:28;;;;;;;5.60;2.70;;;;;;;;;;107383;287;42178;-39
2023/06/01 05:42:02;;;;;;;5.10;2.60;;;;;;;;;;106684;287;894970;-39
2023/06/01 05:44:36;;;;;;;5.50;2.60;;;;;;;;;;107371;288;45656;-39
2023/06/01 05:47:14;;;;;;;5.30;2.70;;;;;;;;;;107392;285;42927;-40
2023/06/01 05:49:47;;;;;;;5.50;2.60;;;;;;;;;;107242;287;175461;-40
2023/06/01 05:52:22;;;;;;;5.10;2.60;;;;;;;;;;107257;287;38611;-39
2023/06/01 05:54:56;;;;;;;5.70;2.70;;;;;;;;;;107245;285;175519;-40
2023/06/01 05:57:32;;;;;;;5.40;2.70;;;;;;;;;;107389;287;44061;-40
2023/06/01 06:00:12;;;;;;;12.30;4.70;;;;;;;;;;107386;287;42225;-40
2023/06/01 06:02:48;;;;;;;10.10;4.90;;;;;;;;;;107360;287;38941;-42
2023/06/01 06:05:25;;;;;;;11.30;4.90;;;;;;;;;;107359;287;39978;-41
2023/06/01 06:08:00;;;;;;;10.30;4.70;;;;;;;;;;107256;292;175062;-40
2023/06/01 06:10:35;;;;;;;11.10;5.10;;;;;;;;;;107355;287;42236;-41
2023/06/01 06:13:09;;;;;;;9.70;4.80;;;;;;;;;;107348;285;38793;-40
2023/06/01 06:15:42;;;;;;;10.50;4.70;;;;;;;;;;107375;287;40784;-39
2023/06/01 06:18:16;;;;;;;9.50;5.00;;;;;;;;;;107365;287;42947;-39
2023/06/01 06:20:50;;;;;;;9.20;4.50;;;;;;;;;;107367;285;43298;-39
2023/06/01 06:23:23;;;;;;;8.70;4.70;;;;;;;;;;107343;285;38801;-40
2023/06/01 06:25:59;;;;;;;8.90;4.80;;;;;;;;;;107364;288;40071;-40
2023/06/01 06:28:32;;;;;;;9.80;4.80;;;;;;;;;;107360;287;44074;-40
2023/06/01 06:31:07;;;;;;;9.80;4.60;;;;;;;;;;107351;285;42251;-39
2023/06/01 06:33:42;;;;;;;8.10;4.70;;;;;;;;;;107311;287;38848;-39
2023/06/01 06:36:18;;;;;;;7.50;4.50;;;;;;;;;;107349;287;39866;-41
2023/06/01 06:38:53;;;;;;;8.90;4.50;;;;;;;;;;107344;287;43894;-40
2023/06/01 06:41:27;;;;;;;10.10;4.50;;;;;;;;;;107354;287;42280;-40
2023/06/01 06:44:01;;;;;;;7.90;4.30;;;;;;;;;;107380;285;38933;-40
2023/06/01 06:46:34;;;;;;;8.60;4.30;;;;;;;;;;107368;287;40880;-39
2023/06/01 06:49:09;;;;;;;7.40;4.00;;;;;;;;;;107385;285;43222;-40
2023/06/01 06:51:44;;;;;;;8.20;4.10;;;;;;;;;;107367;285;42157;-40
2023/06/01 06:54:18;;;;;;;7.80;4.10;;;;;;;;;;107347;287;38855;-40
2023/06/01 06:56:51;;;;;;;8.70;4.10;;;;;;;;;;107357;287;40820;-39
2023/06/01 06:59:25;;;;;;;7.50;4.10;;;;;;;;;;107375;285;42888;-39
2023/06/01 07:01:58;;;;;;;6.60;3.80;;;;;;;;;;107356;285;42143;-40
2023/06/01 07:04:35;;;;;;;7.20;3.60;;;;;;;;;;107368;285;38576;-39
2023/06/01 07:07:10;;;;;;;7.30;3.80;;;;;;;;;;107340;287;40133;-40
2023/06/01 07:09:44;;;;;;;5.90;3.40;;;;;;;;;;107394;287;42945;-40
2023/06/01 07:12:20;;;;;;;6.00;3.40;;;;;;;;;;107406;285;42277;-39
2023/06/01 07:14:56;;;;;;;6.60;3.40;;;;;;;;;;107347;287;40210;-40
2023/06/01 07:17:30;;;;;;;5.30;3.10;;;;;;;;;;107391;285;41788;-39
2023/06/01 07:20:10;;;;;;;5.70;3.20;;;;;;;;;;107348;285;44020;-40
2023/06/01 07:22:44;;;;;;;6.00;3.10;;;;;;;;;;107377;280;42162;-40
2023/06/01 07:25:18;;;;;;;5.80;3.10;;;;;;;;;;107345;285;38837;-39
2023/06/01 07:27:56;;;;;;;6.00;3.10;;;;;;;;;;107395;285;39769;-40
2023/06/01 07:30:31;;;;;;;5.80;3.00;;;;;;;;;;107407;285;42919;-39
2023/06/01 07:33:04;;;;;;;5.90;3.00;;;;;;;;;;107366;287;42445;-40
2023/06/01 07:35:39;;;;;;;5.30;2.90;;;;;;;;;;107351;287;38784;-39
2023/06/01 07:38:14;;;;;;;6.30;2.90;;;;;;;;;;107383;287;39418;-40
2023/06/01 07:40:50;;;;;;;5.70;2.90;;;;;;;;;;107377;285;44111;-39
2023/06/01 07:43:24;;;;;;;5.40;2.70;;;;;;;;;;107350;287;43274;-40
2023/06/01 07:45:58;;;;;;;6.30;2.80;;;;;;;;;;107345;287;38772;-40
2023/06/01 07:48:35;;;;;;;5.20;2.60;;;;;;;;;;107368;287;39834;-41
2023/06/01 07:51:09;;;;;;;4.80;2.50;;;;;;;;;;107380;280;42859;-40
2023/06/01 07:53:43;;;;;;;5.50;2.80;;;;;;;;;;107403;280;42191;-41
2023/06/01 07:56:16;;;;;;;5.50;2.80;;;;;;;;;;107328;285;38843;-40
2023/06/01 07:58:51;;;;;;;5.10;2.50;;;;;;;;;;107376;285;39867;-39
2023/06/01 08:01:26;;;;;;;5.00;2.50;;;;;;;;;;107304;287;43059;-37
2023/06/01 08:04:01;;;;;;;5.10;2.40;;;;;;;;;;107338;286;42200;-38
2023/06/01 08:06:38;;;;;;;4.60;2.50;;;;;;;;;;107288;285;38872;-37
2023/06/01 08:09:14;;;;;;;4.90;2.20;;;;;;;;;;107309;287;39877;-36
2023/06/01 08:11:49;;;;;;;5.10;2.50;;;;;;;;;;107330;285;44295;-37
2023/06/01 08:14:25;;;;;;;5.80;2.00;;;;;;;;;;107240;286;175484;-37
2023/06/01 08:16:59;;;;;;;5.50;2.10;;;;;;;;;;107285;292;38840;-37
2023/06/01 08:19:34;;;;;;;4.80;2.10;;;;;;;;;;107342;287;39525;-39
2023/06/01 08:22:12;;;;;;;4.20;2.10;;;;;;;;;;107391;287;43213;-40
2023/06/01 08:24:48;;;;;;;4.60;2.10;;;;;;;;;;107388;285;41855;-38
2023/06/01 08:27:25;;;;;;;4.10;2.00;;;;;;;;;;107337;286;40157;-38
2023/06/01 08:29:59;;;;;;;4.00;1.90;;;;;;;;;;107384;287;39711;-38
2023/06/01 08:32:33;;;;;;;4.70;1.90;;;;;;;;;;107348;287;43233;-38
2023/06/01 08:35:09;;;;;;;3.60;1.60;;;;;;;;;;107346;286;42150;-38
2023/06/01 08:37:43;;;;;;;4.30;1.80;;;;;;;;;;107345;284;38720;-37
2023/06/01 08:40:18;;;;;;;4.10;1.80;;;;;;;;;;107380;285;39455;-36
2023/06/01 08:43:00;;;;;;;4.40;1.80;;;;;;;;;;107327;287;43036;-37
2023/06/01 08:45:34;;;;;;;5.50;1.80;;;;;;;;;;107349;285;42241;-36
2023/06/01 08:48:10;;;;;;;4.20;1.80;;;;;;;;;;107271;285;38849;-38
2023/06/01 08:50:48;;;;;;;4.60;1.70;;;;;;;;;;107354;287;39897;-37
2023/06/01 08:53:24;;;;;;;3.90;1.60;;;;;;;;;;107356;285;43018;-37
2023/06/01 08:56:00;;;;;;;4.00;1.70;;;;;;;;;;107351;287;43351;-37
2023/06/01 08:58:34;;;;;;;3.70;1.50;;;;;;;;;;107379;285;46541;-34
2023/06/01 09:01:10;;;;;;;4.00;1.70;;;;;;;;;;107376;285;41154;-38
2023/06/01 09:03:44;;;;;;;3.90;1.60;;;;;;;;;;107347;290;43030;-34
2023/06/01 09:06:17;;;;;;;4.90;1.70;;;;;;;;;;107309;287;42164;-35
2023/06/01 09:08:53;;;;;;;3.60;1.50;;;;;;;;;;107336;285;46369;-35
2023/06/01 09:11:31;;;;;;;3.90;1.70;;;;;;;;;;107366;286;39784;-35
2023/06/01 09:14:25;;;;;;;3.50;1.50;;;;;;;;;;107332;283;42915;-39
2023/06/01 09:16:59;;;;;;;3.40;1.50;;;;;;;;;;106932;284;426139;-40
2023/06/01 09:19:46;;;;;;;4.10;1.70;;;;;;;;;;107368;287;38753;-37
2023/06/01 09:22:20;;;;;;;3.40;1.50;;;;;;;;;;107379;285;40990;-39
2023/06/01 09:25:03;;;;;;;4.80;1.60;;;;;;;;;;107355;285;45127;-39
2023/06/01 09:27:48;;;;;;;3.80;1.50;;;;;;;;;;107347;289;43454;-39
2023/06/01 09:30:24;;;;;;;3.60;1.60;;;;;;;;;;107394;289;38793;-39
2023/06/01 09:33:14;;;;;;;3.00;1.50;;;;;;;;;;107361;285;40939;-39
2023/06/01 09:35:51;;;;;;;4.10;1.60;;;;;;;;;;107344;285;45318;-39
2023/06/01 09:38:28;;;;;;;3.70;1.80;;;;;;;;;;107364;285;43159;-39
2023/06/01 09:41:05;;;;;;;3.30;1.30;;;;;;;;;;107346;287;38611;-39
2023/06/01 09:43:45;;;;;;;3.80;1.40;;;;;;;;;;107236;285;175104;-39
2023/06/01 09:46:19;;;;;;;3.90;1.60;;;;;;;;;;107419;287;43990;-39
2023/06/01 09:49:09;;;;;;;3.30;1.50;;;;;;;;;;107346;285;42274;-39
2023/06/01 09:51:46;;;;;;;3.50;1.50;;;;;;;;;;107227;287;38783;-39
2023/06/01 09:54:31;;;;;;;4.10;1.70;;;;;;;;;;107386;285;39956;-40
2023/06/01 09:57:08;;;;;;;3.60;1.50;;;;;;;;;;107390;287;43126;-39
2023/06/01 09:59:48;;;;;;;4.30;1.60;;;;;;;;;;107292;280;48697;-36
2023/06/01 10:02:25;;;;;;;4.10;1.60;;;;;;;;;;107321;287;38912;-36
2023/06/01 10:05:00;;;;;;;4.20;1.50;;;;;;;;;;107367;287;39734;-37
2023/06/01 10:07:38;;;;;;;3.30;1.50;;;;;;;;;;107395;287;43034;-37
2023/06/01 10:10:16;;;;;;;4.30;1.80;;;;;;;;;;107365;287;49588;-38
2023/06/01 10:12:50;;;;;;;3.60;1.50;;;;;;;;;;107357;285;38810;-38
2023/06/01 10:15:24;;;;;;;3.90;1.70;;;;;;;;;;107358;287;39855;-35
2023/06/01 10:18:07;;;;;;;4.00;1.60;;;;;;;;;;107339;285;42900;-37
2023/06/01 10:20:41;;;;;;;3.50;1.60;;;;;;;;;;107358;287;42407;-37
2023/06/01 10:23:16;;;;;;;4.00;1.40;;;;;;;;;;107370;285;38801;-37
2023/06/01 10:26:14;;;;;;;3.80;1.70;;;;;;;;;;107350;287;39922;-37
2023/06/01 10:28:49;;;;;;;3.60;1.50;;;;;;;;;;107314;287;42951;-37
2023/06/01 10:31:43;;;;;;;3.40;1.30;;;;;;;;;;107286;287;43274;-37
2023/06/01 10:34:17;;;;;;;3.10;1.20;;;;;;;;;;107361;287;38813;-35
2023/06/01 10:37:23;;;;;;;3.90;1.40;;;;;;;;;;107378;288;40860;-35
2023/06/01 10:40:12;;;;;;;3.70;1.50;;;;;;;;;;107304;285;42907;-36
2023/06/01 10:42:48;;;;;;;4.30;1.40;;;;;;;;;;107368;287;42145;-37
2023/06/01 10:45:42;;;;;;;4.50;1.50;;;;;;;;;;107370;285;38828;-38
2023/06/01 10:48:18;;;;;;;3.50;1.80;;;;;;;;;;107382;287;39777;-35
2023/06/01 10:51:23;;;;;;;5.40;1.80;;;;;;;;;;107319;287;48777;-35
2023/06/01 10:54:34;;;;;;;4.00;1.40;;;;;;;;;;107414;284;43372;-36
2023/06/01 10:57:22;;;;;;;4.00;1.60;;;;;;;;;;107321;287;39828;-38
2023/06/01 11:00:23;;;;;;;4.10;1.70;;;;;;;;;;107303;287;39729;-38
2023/06/01 11:02:59;;;;;;;4.20;1.90;;;;;;;;;;107377;285;43143;-38
2023/06/01 11:05:48;;;;;;;4.00;1.50;;;;;;;;;;107365;285;42157;-38
2023/06/01 11:08:53;;;;;;;4.20;1.80;;;;;;;;;;107366;287;38867;-36
2023/06/01 11:12:00;;;;;;;3.70;1.50;;;;;;;;;;107471;284;46050;-36
2023/06/01 11:14:35;;;;;;;4.90;1.50;;;;;;;;;;107309;287;43473;-35
2023/06/01 11:17:33;;;;;;;3.30;1.40;;;;;;;;;;107309;287;42246;-35
2023/06/01 11:20:11;;;;;;;4.20;1.80;;;;;;;;;;107293;285;39687;-35
2023/06/01 11:22:46;;;;;;;4.70;1.80;;;;;;;;;;107333;285;39730;-35
2023/06/01 11:25:28;;;;;;;4.10;1.70;;;;;;;;;;107398;287;44105;-36
2023/06/01 11:28:08;;;;;;;4.80;1.80;;;;;;;;;;107344;287;42156;-35
2023/06/01 11:30:44;;;;;;;3.80;1.60;;;;;;;;;;107313;285;38784;-36
2023/06/01 11:33:19;;;;;;;4.10;1.60;;;;;;;;;;107342;285;39725;-36
2023/06/01 11:36:04;;;;;;;4.10;1.60;;;;;;;;;;107368;287;42743;-36
2023/06/01 11:38:40;;;;;;;3.70;1.70;;;;;;;;;;107343;287;43414;-36
2023/06/01 11:41:16;;;;;;;4.00;1.80;;;;;;;;;;107347;285;38611;-36
2023/06/01 11:43:58;;;;;;;4.20;1.70;;;;;;;;;;107353;283;39828;-36
2023/06/01 11:46:34;;;;;;;4.30;1.70;;;;;;;;;;107365;285;42689;-35
2023/06/01 11:49:13;;;;;;;4.00;1.90;;;;;;;;;;107344;285;43158;-36
2023/06/01 11:51:47;;;;;;;4.60;1.60;;;;;;;;;;107233;287;39457;-35
2023/06/01 11:54:27;;;;;;;4.60;1.80;;;;;;;;;;107362;287;39785;-36
2023/06/01 11:57:07;;;;;;;3.70;1.60;;;;;;;;;;107405;287;42867;-36
2023/06/01 11:59:47;;;;;;;4.60;1.80;;;;;;;;;;107371;287;43524;-37
2023/06/01 12:02:27;;;;;;;4.40;1.90;;;;;;;;;;107301;287;38963;-34
2023/06/01 12:05:06;;;;;;;3.80;1.70;;;;;;;;;;107354;287;39473;-35
2023/06/01 12:07:50;;;;;;;4.10;1.90;;;;;;;;;;107343;285;42917;-36
2023/06/01 12:10:25;;;;;;;4.20;2.10;;;;;;;;;;107327;285;42112;-36
2023/06/01 12:12:59;;;;;;;3.20;1.60;;;;;;;;;;107356;285;44937;-35
2023/06/01 12:15:34;;;;;;;4.10;1.40;;;;;;;;;;107382;287;39745;-36
2023/06/01 12:18:09;;;;;;;4.40;1.80;;;;;;;;;;107358;287;43052;-36
2023/06/01 12:20:45;;;;;;;3.90;1.60;;;;;;;;;;107288;287;42266;-37
2023/06/01 12:23:20;;;;;;;4.30;1.70;;;;;;;;;;107346;285;44929;-36
2023/06/01 12:25:59;;;;;;;4.70;1.80;;;;;;;;;;107363;284;39842;-37
2023/06/01 12:28:53;;;;;;;5.00;1.90;;;;;;;;;;107363;287;43026;-36
2023/06/01 12:31:32;;;;;;;4.50;1.60;;;;;;;;;;107363;287;42436;-36
2023/06/01 12:34:18;;;;;;;4.70;1.70;;;;;;;;;;107389;287;38764;-37
2023/06/01 12:36:54;;;;;;;3.70;1.70;;;;;;;;;;107364;280;39740;-36
2023/06/01 12:39:37;;;;;;;4.70;1.80;;;;;;;;;;107361;287;43025;-35
2023/06/01 12:42:16;;;;;;;3.70;1.50;;;;;;;;;;107356;280;42161;-33
2023/06/01 12:44:58;;;;;;;4.10;1.70;;;;;;;;;;107408;287;38910;-34
2023/06/01 12:47:39;;;;;;;3.80;1.60;;;;;;;;;;107260;287;175438;-34
2023/06/01 12:50:14;;;;;;;4.20;1.80;;;;;;;;;;107401;285;42873;-35
2023/06/01 12:52:50;;;;;;;4.20;1.60;;;;;;;;;;107362;287;42392;-35
2023/06/01 12:55:27;;;;;;;4.40;1.80;;;;;;;;;;107394;285;38817;-35
2023/06/01 12:58:01;;;;;;;3.80;1.60;;;;;;;;;;107302;287;39980;-36
2023/06/01 13:00:37;;;;;;;4.00;1.60;;;;;;;;;;107396;287;44062;-35
2023/06/01 13:03:32;;;;;;;3.80;1.50;;;;;;;;;;107390;287;42214;-35
2023/06/01 13:06:11;;;;;;;4.00;1.60;;;;;;;;;;107382;285;38890;-35
2023/06/01 13:08:46;;;;;;;3.60;1.40;;;;;;;;;;107382;285;39703;-35
2023/06/01 13:11:24;;;;;;;3.80;1.60;;;;;;;;;;107387;287;42945;-35
2023/06/01 13:14:02;;;;;;;3.90;1.60;;;;;;;;;;107361;287;43065;-35
2023/06/01 13:16:35;;;;;;;3.80;1.70;;;;;;;;;;107378;285;38536;-35
2023/06/01 13:19:10;;;;;;;4.60;1.80;;;;;;;;;;107387;287;40882;-35
2023/06/01 13:21:44;;;;;;;4.40;1.80;;;;;;;;;;107341;287;42941;-35
2023/06/01 13:24:17;;;;;;;3.80;1.80;;;;;;;;;;107333;287;43223;-35
2023/06/01 13:26:50;;;;;;;3.80;1.60;;;;;;;;;;107389;287;38854;-35
2023/06/01 13:29:24;;;;;;;4.00;1.60;;;;;;;;;;107372;285;39681;-35
2023/06/01 13:31:59;;;;;;;3.80;1.60;;;;;;;;;;107344;285;43228;-36
2023/06/01 13:34:33;;;;;;;3.90;1.70;;;;;;;;;;107312;284;47962;-35
2023/06/01 13:37:07;;;;;;;4.00;1.80;;;;;;;;;;107361;287;38919;-35
2023/06/01 13:39:41;;;;;;;3.60;1.50;;;;;;;;;;107302;280;174981;-35
2023/06/01 13:42:18;;;;;;;3.80;1.80;;;;;;;;;;107374;285;42902;-35
2023/06/01 13:44:54;;;;;;;4.10;1.60;;;;;;;;;;107339;287;49035;-35
2023/06/01 13:47:31;;;;;;;3.60;1.50;;;;;;;;;;107360;287;38987;-35
2023/06/01 13:50:09;;;;;;;3.80;1.60;;;;;;;;;;107383;285;39992;-35
2023/06/01 13:52:44;;;;;;;3.70;1.60;;;;;;;;;;107373;285;42830;-36
2023/06/01 13:55:20;;;;;;;3.60;1.40;;;;;;;;;;107353;287;42430;-35
2023/06/01 13:57:58;;;;;;;4.10;1.90;;;;;;;;;;107369;285;38895;-35
2023/06/01 14:00:32;;;;;;;4.30;1.70;;;;;;;;;;107370;285;40080;-35
2023/06/01 14:03:06;;;;;;;4.10;1.60;;;;;;;;;;107354;287;43320;-36
2023/06/01 14:05:43;;;;;;;3.90;1.70;;;;;;;;;;107285;287;42172;-35
2023/06/01 14:08:30;;;;;;;5.40;2.00;;;;;;;;;;107368;287;39305;-36
2023/06/01 14:11:06;;;;;;;4.00;1.80;;;;;;;;;;107382;287;39721;-35
2023/06/01 14:13:43;;;;;;;3.70;1.80;;;;;;;;;;106678;285;892946;-35
2023/06/01 14:16:17;;;;;;;4.30;1.80;;;;;;;;;;107338;285;42386;-35
2023/06/01 14:18:53;;;;;;;4.80;2.10;;;;;;;;;;107406;287;38798;-37
2023/06/01 14:21:28;;;;;;;3.70;1.60;;;;;;;;;;107395;285;39778;-38
2023/06/01 14:24:05;;;;;;;4.90;2.00;;;;;;;;;;107236;287;175368;-37
2023/06/01 14:26:40;;;;;;;4.30;1.90;;;;;;;;;;107268;287;175412;-38
2023/06/01 14:29:16;;;;;;;4.50;2.10;;;;;;;;;;107358;285;40023;-37
2023/06/01 14:31:52;;;;;;;4.30;1.80;;;;;;;;;;107367;287;39852;-38
2023/06/01 14:34:31;;;;;;;4.80;1.80;;;;;;;;;;107345;287;42889;-37
2023/06/01 14:37:10;;;;;;;3.90;1.70;;;;;;;;;;107391;287;42202;-35
2023/06/01 14:39:47;;;;;;;5.00;2.00;;;;;;;;;;107381;287;38785;-35
2023/06/01 14:42:24;;;;;;;4.20;1.90;;;;;;;;;;107404;287;39925;-35
2023/06/01 14:45:01;;;;;;;4.90;2.10;;;;;;;;;;107350;287;43065;-35
2023/06/01 14:47:44;;;;;;;4.50;1.90;;;;;;;;;;107375;287;42149;-37
2023/06/01 14:50:18;;;;;;;4.90;1.80;;;;;;;;;;107350;287;38805;-37
2023/06/01 14:52:59;;;;;;;4.10;1.80;;;;;;;;;;107378;287;39688;-37
2023/06/01 14:55:36;;;;;;;4.30;1.70;;;;;;;;;;107362;285;43214;-37
2023/06/01 14:58:13;;;;;;;4.30;1.80;;;;;;;;;;107426;285;42048;-37
2023/06/01 15:00:49;;;;;;;4.40;1.70;;;;;;;;;;107364;287;38838;-37
2023/06/01 15:03:25;;;;;;;4.20;1.90;;;;;;;;;;107389;287;39783;-37
2023/06/01 15:05:59;;;;;;;4.70;1.80;;;;;;;;;;107327;287;43965;-37
2023/06/01 15:08:33;;;;;;;4.00;1.80;;;;;;;;;;107389;285;42146;-37
2023/06/01 15:11:07;;;;;;;4.40;2.10;;;;;;;;;;107354;287;38924;-37
2023/06/01 15:13:43;;;;;;;4.10;1.70;;;;;;;;;;107421;287;39727;-38
2023/06/01 15:16:19;;;;;;;4.20;1.80;;;;;;;;;;107338;287;42860;-36
2023/06/01 15:18:54;;;;;;;4.30;1.70;;;;;;;;;;107401;287;42214;-36
2023/06/01 15:21:29;;;;;;;3.90;1.80;;;;;;;;;;107411;287;39838;-36
2023/06/01 15:24:03;;;;;;;4.30;1.80;;;;;;;;;;107348;287;39727;-36
2023/06/01 15:26:38;;;;;;;4.80;1.90;;;;;;;;;;107369;289;42948;-36
2023/06/01 15:29:16;;;;;;;4.30;1.70;;;;;;;;;;107386;287;42158;-36
2023/06/01 15:31:54;;;;;;;5.00;1.90;;;;;;;;;;107346;285;39913;-36
2023/06/01 15:34:31;;;;;;;4.40;1.90;;;;;;;;;;107378;286;39666;-36
2023/06/01 15:37:06;;;;;;;5.00;2.20;;;;;;;;;;107316;287;42879;-36
2023/06/01 15:39:43;;;;;;;4.50;1.80;;;;;;;;;;107368;287;42318;-36
2023/06/01 15:42:20;;;;;;;4.80;2.10;;;;;;;;;;107373;287;39957;-35
2023/06/01 15:44:55;;;;;;;4.50;2.10;;;;;;;;;;107361;285;39853;-35